Time;durP1;ratioP1;P1;durP2;ratioP2;P2;SDS_P1;SDS_P2;PMS_P1;PMS_P2;Temp;Humidity;BMP_temperature;BMP_pressure;BME280_temperature;BME280_humidity;BME280_pressure;Samples;Min_cycle;Max_cycle;Signal;HPM_P1;HPM_P2
2024/01/07 00:01:02;;;;;;;0.57;0.57;;;1.60;99.90;;;;;;5034454;28;20186;-88
2024/01/07 00:03:28;;;;;;;0.37;0.37;;;1.30;99.90;;;;;;5017127;28;20292;-89
2024/01/07 00:05:54;;;;;;;0.40;0.40;;;1.00;99.90;;;;;;5017101;28;20748;-90
2024/01/07 00:08:20;;;;;;;0.40;0.40;;;1.00;99.90;;;;;;5034323;28;20574;-90
2024/01/07 00:10:46;;;;;;;0.60;0.60;;;1.30;99.90;;;;;;5041499;28;20225;-89
2024/01/07 00:13:12;;;;;;;0.73;0.73;;;0.90;99.90;;;;;;5014493;28;20191;-90
2024/01/07 00:15:38;;;;;;;0.87;0.87;;;1.30;99.90;;;;;;5032797;28;20587;-89
2024/01/07 00:18:04;;;;;;;1.37;0.60;;;1.10;99.90;;;;;;5025412;28;20321;-88
2024/01/07 00:20:29;;;;;;;0.40;0.40;;;0.90;99.90;;;;;;5018111;28;20218;-89
2024/01/07 00:22:56;;;;;;;0.40;0.40;;;1.30;99.90;;;;;;5041805;28;20261;-87
2024/01/07 00:25:22;;;;;;;1.90;0.90;;;1.00;99.90;;;;;;5041557;28;20362;-88
2024/01/07 00:27:47;;;;;;;0.30;0.30;;;1.30;99.90;;;;;;5032080;28;20218;-89
2024/01/07 00:30:13;;;;;;;0.67;0.67;;;1.10;99.90;;;;;;5039441;28;20879;-88
2024/01/07 00:32:39;;;;;;;0.97;0.97;;;1.00;99.90;;;;;;5024782;28;20218;-91
2024/01/07 00:35:05;;;;;;;1.07;1.07;;;1.00;99.90;;;;;;5026860;28;20562;-87
2024/01/07 00:37:31;;;;;;;0.90;0.90;;;1.30;99.90;;;;;;5058161;28;20230;-89
2024/01/07 00:39:57;;;;;;;0.50;0.50;;;1.30;99.90;;;;;;5026131;28;20920;-87
2024/01/07 00:42:22;;;;;;;0.30;0.30;;;1.30;99.90;;;;;;5026476;28;21092;-90
2024/01/07 00:44:48;;;;;;;0.37;0.30;;;1.30;99.90;;;;;;5017214;28;20256;-90
2024/01/07 00:47:14;;;;;;;1.07;1.07;;;1.10;99.90;;;;;;5033205;28;20375;-87
2024/01/07 00:49:40;;;;;;;0.40;0.40;;;1.00;99.90;;;;;;5025756;28;20678;-88
2024/01/07 00:52:06;;;;;;;0.83;0.60;;;0.80;99.90;;;;;;5047545;28;20673;-89
2024/01/07 00:54:32;;;;;;;0.40;0.40;;;0.90;99.90;;;;;;5057726;28;20238;-87
2024/01/07 00:56:58;;;;;;;0.43;0.43;;;1.00;99.90;;;;;;5024895;28;20852;-91
2024/01/07 00:59:23;;;;;;;3.50;1.80;;;0.70;99.90;;;;;;5041514;28;20230;-87
2024/01/07 01:01:49;;;;;;;0.50;0.50;;;0.70;99.90;;;;;;5046777;28;20222;-87
2024/01/07 01:04:15;;;;;;;2.63;2.53;;;1.00;99.90;;;;;;5005370;28;20190;-87
2024/01/07 01:06:41;;;;;;;0.30;0.30;;;1.00;99.90;;;;;;5010814;28;20186;-88
2024/01/07 01:09:07;;;;;;;0.57;0.57;;;0.90;99.90;;;;;;5023825;28;20420;-88
2024/01/07 01:11:33;;;;;;;0.80;0.63;;;1.00;99.90;;;;;;5023967;28;20218;-87
2024/01/07 01:13:58;;;;;;;0.40;0.40;;;0.70;99.90;;;;;;5039776;28;20250;-87
2024/01/07 01:16:24;;;;;;;0.63;0.63;;;0.90;99.90;;;;;;5045878;28;20194;-88
2024/01/07 01:18:50;;;;;;;0.40;0.40;;;1.10;99.90;;;;;;5031645;28;20753;-89
2024/01/07 01:21:16;;;;;;;0.20;0.20;;;0.90;99.90;;;;;;5013498;28;20218;-91
2024/01/07 01:23:43;;;;;;;0.30;0.30;;;1.20;99.90;;;;;;5037723;28;20283;-88
2024/01/07 01:26:09;;;;;;;0.50;0.50;;;1.20;99.90;;;;;;5022779;28;20225;-90
2024/01/07 01:28:35;;;;;;;0.93;0.93;;;1.00;99.90;;;;;;5028772;28;20234;-90
2024/01/07 01:31:01;;;;;;;0.20;0.20;;;1.00;99.90;;;;;;5013686;28;20183;-87
2024/01/07 01:33:26;;;;;;;1.43;1.33;;;1.00;99.90;;;;;;5028785;28;20662;-88
2024/01/07 01:35:52;;;;;;;0.40;0.40;;;1.00;99.90;;;;;;5040143;28;20627;-89
2024/01/07 01:38:18;;;;;;;1.37;1.23;;;1.30;99.90;;;;;;5006935;28;20306;-88
2024/01/07 01:40:43;;;;;;;0.33;0.33;;;1.30;99.90;;;;;;5023999;28;21241;-87
2024/01/07 01:43:09;;;;;;;0.33;0.33;;;1.10;99.90;;;;;;5024339;28;20912;-85
2024/01/07 01:45:35;;;;;;;1.07;1.07;;;1.00;99.90;;;;;;5039274;28;20191;-92
2024/01/07 01:48:01;;;;;;;0.30;0.30;;;1.10;99.90;;;;;;5021457;28;20250;-88
2024/01/07 01:50:26;;;;;;;0.37;0.37;;;1.10;99.90;;;;;;5020848;28;20763;-88
2024/01/07 01:52:53;;;;;;;0.30;0.30;;;1.20;99.90;;;;;;5019465;28;20784;-90
2024/01/07 01:55:19;;;;;;;0.57;0.50;;;1.30;99.90;;;;;;5026692;28;20243;-91
2024/01/07 01:57:47;;;;;;;0.40;0.40;;;1.20;99.90;;;;;;5035939;28;20206;-88
2024/01/07 02:00:13;;;;;;;0.30;0.30;;;1.20;99.90;;;;;;5028370;28;20231;-90
2024/01/07 02:02:39;;;;;;;0.83;0.83;;;0.90;99.90;;;;;;5019380;28;20295;-88
2024/01/07 02:05:05;;;;;;;0.40;0.40;;;1.00;99.90;;;;;;5019521;28;20329;-91
2024/01/07 02:07:31;;;;;;;0.20;0.20;;;0.90;99.90;;;;;;5034904;28;20238;-88
2024/01/07 02:09:57;;;;;;;0.30;0.30;;;0.90;99.90;;;;;;5052254;28;20183;-88
2024/01/07 02:12:23;;;;;;;2.73;1.03;;;1.00;99.90;;;;;;5021272;28;20240;-88
2024/01/07 02:14:48;;;;;;;0.30;0.30;;;1.10;99.90;;;;;;5020466;28;20310;-88
2024/01/07 02:17:16;;;;;;;0.57;0.57;;;1.10;99.90;;;;;;5021098;28;20228;-88
2024/01/07 02:19:42;;;;;;;0.57;0.57;;;1.10;99.90;;;;;;5055689;28;20244;-89
2024/01/07 02:22:07;;;;;;;0.40;0.40;;;1.20;99.90;;;;;;5039034;28;20642;-87
2024/01/07 02:24:33;;;;;;;0.73;0.73;;;1.20;99.90;;;;;;5029581;28;20223;-89
2024/01/07 02:27:02;;;;;;;0.30;0.30;;;1.10;99.90;;;;;;5016309;28;20219;-87
2024/01/07 02:29:29;;;;;;;0.57;0.57;;;1.20;99.90;;;;;;5039277;28;20820;-87
2024/01/07 02:31:55;;;;;;;0.20;0.20;;;1.00;99.90;;;;;;5023844;28;20241;-89
2024/01/07 02:34:20;;;;;;;0.30;0.30;;;1.10;99.90;;;;;;5023933;28;20252;-89
2024/01/07 02:36:46;;;;;;;0.33;0.33;;;1.10;99.90;;;;;;5015398;28;20657;-86
2024/01/07 02:39:12;;;;;;;0.50;0.50;;;1.00;99.90;;;;;;5029308;28;20738;-89
2024/01/07 02:41:38;;;;;;;0.30;0.30;;;0.90;99.90;;;;;;5023117;28;20233;-87
2024/01/07 02:44:03;;;;;;;0.30;0.30;;;0.90;99.90;;;;;;5019984;28;20219;-88
2024/01/07 02:46:30;;;;;;;0.73;0.73;;;0.80;99.90;;;;;;5010514;28;20229;-90
2024/01/07 02:48:56;;;;;;;0.93;0.93;;;0.90;99.90;;;;;;5020082;28;20440;-88
2024/01/07 02:51:22;;;;;;;0.50;0.50;;;1.00;99.90;;;;;;5007345;28;21155;-88
2024/01/07 02:53:48;;;;;;;0.30;0.30;;;1.00;99.90;;;;;;5034631;28;20250;-88
2024/01/07 02:56:13;;;;;;;0.20;0.20;;;0.80;99.90;;;;;;5030806;28;20701;-89
2024/01/07 02:58:39;;;;;;;0.40;0.40;;;0.80;99.90;;;;;;5019237;28;20237;-89
2024/01/07 03:01:09;;;;;;;1.03;1.03;;;0.90;99.90;;;;;;5026090;28;20199;-87
2024/01/07 03:03:35;;;;;;;0.30;0.30;;;0.90;99.90;;;;;;5019540;28;20225;-87
2024/01/07 03:06:00;;;;;;;0.40;0.40;;;0.80;99.90;;;;;;5005396;28;20223;-89
2024/01/07 03:08:27;;;;;;;0.60;0.60;;;0.90;99.90;;;;;;5026259;28;20222;-88
2024/01/07 03:10:53;;;;;;;1.47;1.47;;;0.80;99.90;;;;;;5020983;28;20226;-88
2024/01/07 03:13:19;;;;;;;0.33;0.33;;;1.00;99.90;;;;;;5015049;28;20201;-88
2024/01/07 03:15:45;;;;;;;0.37;0.37;;;0.80;99.90;;;;;;5031386;28;20288;-88
2024/01/07 03:18:10;;;;;;;2.57;1.60;;;1.00;99.90;;;;;;5040658;28;20223;-88
2024/01/07 03:20:36;;;;;;;0.30;0.30;;;0.90;99.90;;;;;;5041390;28;20839;-88
2024/01/07 03:23:02;;;;;;;0.30;0.30;;;1.10;99.90;;;;;;5058568;28;20227;-87
2024/01/07 03:25:28;;;;;;;0.30;0.30;;;1.00;99.90;;;;;;5037632;28;20222;-91
2024/01/07 03:27:53;;;;;;;0.23;0.23;;;1.20;99.90;;;;;;5028223;28;20268;-88
2024/01/07 03:30:19;;;;;;;0.20;0.20;;;1.30;99.90;;;;;;5032711;28;20694;-90
2024/01/07 03:32:45;;;;;;;0.50;0.50;;;1.20;99.90;;;;;;5027286;28;20214;-89
2024/01/07 03:35:11;;;;;;;0.50;0.50;;;1.10;99.90;;;;;;5017973;28;20214;-90
2024/01/07 03:37:36;;;;;;;0.23;0.23;;;1.30;99.90;;;;;;5026041;28;20253;-87
2024/01/07 03:40:03;;;;;;;0.43;0.43;;;1.40;99.90;;;;;;5043825;28;21126;-88
2024/01/07 03:42:28;;;;;;;0.63;0.63;;;1.20;99.90;;;;;;5017861;28;20301;-89
2024/01/07 03:44:54;;;;;;;1.20;0.97;;;1.20;99.90;;;;;;5027891;28;20317;-89
2024/01/07 03:47:20;;;;;;;1.23;1.23;;;1.40;99.90;;;;;;5025904;28;20249;-88
2024/01/07 03:49:46;;;;;;;0.63;0.63;;;1.30;99.90;;;;;;5042827;28;20305;-87
2024/01/07 03:52:11;;;;;;;0.63;0.40;;;1.30;99.90;;;;;;5016953;28;20235;-87
2024/01/07 03:54:37;;;;;;;0.37;0.37;;;1.30;99.90;;;;;;5038321;28;20991;-90
2024/01/07 03:57:03;;;;;;;0.30;0.30;;;1.40;99.90;;;;;;5042616;28;20218;-88
2024/01/07 03:59:29;;;;;;;0.30;0.30;;;1.50;99.90;;;;;;5032171;28;20227;-88
2024/01/07 04:01:57;;;;;;;0.60;0.60;;;1.50;99.90;;;;;;5024065;28;20225;-89
2024/01/07 04:04:23;;;;;;;0.30;0.30;;;1.50;99.90;;;;;;5059501;28;20182;-87
2024/01/07 04:06:49;;;;;;;0.50;0.50;;;1.50;99.90;;;;;;5027754;28;20269;-87
2024/01/07 04:09:14;;;;;;;0.30;0.30;;;1.40;99.90;;;;;;5040860;28;20291;-88
2024/01/07 04:11:41;;;;;;;1.23;0.77;;;1.40;99.90;;;;;;5042248;28;20230;-88
2024/01/07 04:14:07;;;;;;;0.30;0.30;;;1.50;99.90;;;;;;5025112;28;20665;-87
2024/01/07 04:16:33;;;;;;;0.50;0.50;;;1.50;99.90;;;;;;5025119;28;20348;-89
2024/01/07 04:18:59;;;;;;;0.30;0.30;;;1.60;99.90;;;;;;5025959;28;20194;-90
2024/01/07 04:21:25;;;;;;;0.60;0.60;;;1.50;99.90;;;;;;5026877;28;20227;-89
2024/01/07 04:23:50;;;;;;;0.20;0.20;;;1.50;99.90;;;;;;5017649;28;20246;-87
2024/01/07 04:26:16;;;;;;;0.30;0.30;;;1.60;99.90;;;;;;5017553;28;20973;-90
2024/01/07 04:28:42;;;;;;;0.23;0.23;;;1.50;99.90;;;;;;5025366;28;20234;-88
2024/01/07 04:31:08;;;;;;;0.20;0.20;;;1.50;99.90;;;;;;5035315;28;20195;-87
2024/01/07 04:33:34;;;;;;;0.20;0.20;;;1.40;99.90;;;;;;5058596;28;20254;-89
2024/01/07 04:36:00;;;;;;;0.30;0.30;;;1.40;99.90;;;;;;5025416;28;20372;-85
2024/01/07 04:38:29;;;;;;;0.30;0.30;;;1.50;99.90;;;;;;5024836;28;20230;-85
2024/01/07 04:40:55;;;;;;;0.40;0.40;;;1.50;99.90;;;;;;5024810;28;20219;-88
2024/01/07 04:43:21;;;;;;;0.50;0.50;;;1.40;99.90;;;;;;5025011;28;20183;-87
2024/01/07 04:45:47;;;;;;;0.90;0.90;;;1.40;99.90;;;;;;5026941;28;20179;-87
2024/01/07 04:48:13;;;;;;;0.40;0.40;;;1.30;99.90;;;;;;5049064;28;20751;-89
2024/01/07 04:50:42;;;;;;;0.20;0.20;;;1.50;99.90;;;;;;5015975;28;20230;-87
2024/01/07 04:53:11;;;;;;;0.30;0.30;;;1.50;99.90;;;;;;5012581;28;20284;-86
2024/01/07 04:55:36;;;;;;;0.40;0.40;;;1.40;99.90;;;;;;5012942;28;20238;-88
2024/01/07 04:58:04;;;;;;;0.20;0.20;;;1.40;99.90;;;;;;5022539;28;20195;-88
2024/01/07 05:00:29;;;;;;;0.53;0.53;;;1.30;99.90;;;;;;5022719;28;20223;-89
2024/01/07 05:02:55;;;;;;;0.30;0.30;;;1.40;99.90;;;;;;5040260;28;20222;-87
2024/01/07 05:05:21;;;;;;;0.40;0.40;;;1.40;99.90;;;;;;5039570;28;20308;-87
2024/01/07 05:07:46;;;;;;;0.30;0.30;;;1.40;99.90;;;;;;5033323;28;20233;-88
2024/01/07 05:10:12;;;;;;;0.40;0.40;;;1.50;99.90;;;;;;5025532;28;20202;-88
2024/01/07 05:12:38;;;;;;;0.30;0.30;;;1.50;99.90;;;;;;5025787;28;20195;-87
2024/01/07 05:15:04;;;;;;;0.63;0.63;;;1.50;99.90;;;;;;5037092;28;20719;-87
2024/01/07 05:17:30;;;;;;;0.30;0.30;;;1.50;99.90;;;;;;5029308;28;20279;-86
2024/01/07 05:19:56;;;;;;;0.40;0.40;;;1.50;99.90;;;;;;5055784;28;21152;-88
2024/01/07 05:22:22;;;;;;;0.30;0.30;;;1.50;99.90;;;;;;5039803;28;20193;-88
2024/01/07 05:24:48;;;;;;;0.30;0.30;;;1.60;99.90;;;;;;5029927;28;20186;-87
2024/01/07 05:27:13;;;;;;;1.77;1.77;;;1.50;99.90;;;;;;5047587;28;20223;-88
2024/01/07 05:29:40;;;;;;;0.40;0.40;;;1.50;99.90;;;;;;5015137;28;20226;-87
2024/01/07 05:32:06;;;;;;;0.30;0.30;;;1.60;99.90;;;;;;5039638;28;20584;-87
2024/01/07 05:34:32;;;;;;;0.60;0.60;;;1.60;99.90;;;;;;5024191;28;20694;-87
2024/01/07 05:36:57;;;;;;;0.70;0.70;;;1.60;99.90;;;;;;5016587;28;20194;-87
2024/01/07 05:39:23;;;;;;;0.40;0.40;;;1.50;99.90;;;;;;5038223;28;20649;-87
2024/01/07 05:41:49;;;;;;;0.30;0.30;;;1.60;99.90;;;;;;5013473;28;20218;-87
2024/01/07 05:44:14;;;;;;;0.40;0.40;;;1.60;99.90;;;;;;5023130;28;20218;-88
2024/01/07 05:46:40;;;;;;;0.30;0.30;;;1.60;99.90;;;;;;5013447;28;20305;-88
2024/01/07 05:49:06;;;;;;;0.30;0.30;;;1.60;99.90;;;;;;5024114;28;20225;-87
2024/01/07 05:51:32;;;;;;;0.60;0.60;;;1.60;99.90;;;;;;5039719;28;20600;-88
2024/01/07 05:53:58;;;;;;;0.30;0.30;;;1.60;99.90;;;;;;5022987;28;20364;-86
2024/01/07 05:56:23;;;;;;;0.30;0.30;;;1.60;99.90;;;;;;5023908;28;20218;-88
2024/01/07 05:58:49;;;;;;;1.70;0.87;;;1.60;99.90;;;;;;5016301;28;21043;-88
2024/01/07 06:01:19;;;;;;;0.70;0.70;;;1.60;99.90;;;;;;5040043;28;20190;-87
2024/01/07 06:03:46;;;;;;;0.30;0.30;;;1.50;99.90;;;;;;5047381;28;20233;-87
2024/01/07 06:06:13;;;;;;;0.37;0.37;;;1.50;99.90;;;;;;5039956;28;20712;-87
2024/01/07 06:08:39;;;;;;;0.30;0.30;;;1.50;99.90;;;;;;5014151;28;20226;-89
2024/01/07 06:11:04;;;;;;;0.63;0.63;;;1.50;99.90;;;;;;5039352;28;20215;-88
2024/01/07 06:13:30;;;;;;;0.27;0.27;;;1.50;99.90;;;;;;5031549;28;20231;-87
2024/01/07 06:15:56;;;;;;;0.27;0.27;;;1.50;99.90;;;;;;5033190;28;20190;-88
2024/01/07 06:18:21;;;;;;;0.20;0.20;;;1.50;99.90;;;;;;5023146;28;20230;-88
2024/01/07 06:20:47;;;;;;;0.30;0.30;;;1.50;99.90;;;;;;5023152;28;20326;-89
2024/01/07 06:23:13;;;;;;;0.40;0.40;;;1.60;99.90;;;;;;5023880;28;20249;-87
2024/01/07 06:25:39;;;;;;;0.30;0.30;;;1.50;99.90;;;;;;5030734;28;20282;-87
2024/01/07 06:28:05;;;;;;;0.73;0.73;;;1.50;99.90;;;;;;5015226;28;20661;-86
2024/01/07 06:30:31;;;;;;;1.80;1.80;;;1.50;99.90;;;;;;5032256;28;20210;-87
2024/01/07 06:32:57;;;;;;;0.93;0.40;;;1.60;99.90;;;;;;5023681;28;20222;-88
2024/01/07 06:35:22;;;;;;;0.30;0.30;;;1.50;99.90;;;;;;5039624;28;20222;-86
2024/01/07 06:37:48;;;;;;;0.30;0.30;;;1.60;99.90;;;;;;5012430;28;21047;-87
2024/01/07 06:40:14;;;;;;;0.30;0.30;;;1.60;99.90;;;;;;5023469;28;20187;-88
2024/01/07 06:42:41;;;;;;;0.30;0.30;;;1.60;99.90;;;;;;5015379;28;21207;-88
2024/01/07 06:45:07;;;;;;;0.30;0.30;;;1.50;99.90;;;;;;5039338;28;20215;-87
2024/01/07 06:47:32;;;;;;;0.30;0.30;;;1.50;99.90;;;;;;5014237;28;20244;-87
2024/01/07 06:49:58;;;;;;;0.30;0.30;;;1.50;99.90;;;;;;5032641;28;20257;-87
2024/01/07 06:52:24;;;;;;;0.30;0.30;;;1.50;99.90;;;;;;5016526;28;20753;-88
2024/01/07 06:54:49;;;;;;;0.30;0.30;;;1.50;99.90;;;;;;5027814;28;20202;-87
2024/01/07 06:57:15;;;;;;;0.40;0.40;;;1.50;99.90;;;;;;5043043;28;20765;-89
2024/01/07 06:59:41;;;;;;;0.30;0.30;;;1.50;99.90;;;;;;5026751;28;20233;-87
2024/01/07 07:02:07;;;;;;;0.33;0.33;;;1.60;99.90;;;;;;5027110;28;20964;-88
2024/01/07 07:04:32;;;;;;;0.30;0.30;;;1.50;99.90;;;;;;5043454;28;20226;-87
2024/01/07 07:07:00;;;;;;;0.30;0.30;;;1.50;99.90;;;;;;5027284;28;20190;-87
2024/01/07 07:09:25;;;;;;;0.27;0.27;;;1.50;99.90;;;;;;5037760;28;20234;-88
2024/01/07 07:11:51;;;;;;;0.50;0.50;;;1.40;99.90;;;;;;5026922;28;20214;-88
2024/01/07 07:14:17;;;;;;;1.30;0.57;;;1.50;99.90;;;;;;5042545;28;20229;-88
2024/01/07 07:16:42;;;;;;;0.40;0.40;;;1.50;99.90;;;;;;5042507;28;20226;-85
2024/01/07 07:19:08;;;;;;;1.03;1.03;;;1.40;99.90;;;;;;5017255;28;20194;-87
2024/01/07 07:21:34;;;;;;;0.40;0.40;;;1.40;99.90;;;;;;5018616;28;20325;-89
2024/01/07 07:23:59;;;;;;;0.30;0.30;;;1.30;99.90;;;;;;5042479;28;20230;-87
2024/01/07 07:26:25;;;;;;;0.30;0.30;;;1.30;99.90;;;;;;5016439;28;21100;-87
2024/01/07 07:28:51;;;;;;;0.30;0.30;;;1.20;99.90;;;;;;5016931;28;20230;-87
2024/01/07 07:31:17;;;;;;;0.53;0.53;;;1.20;99.90;;;;;;5023075;28;20187;-89
2024/01/07 07:33:42;;;;;;;0.20;0.20;;;1.10;99.90;;;;;;5027507;28;20186;-88
2024/01/07 07:36:09;;;;;;;0.83;0.83;;;1.10;99.90;;;;;;5025679;28;20529;-90
2024/01/07 07:38:35;;;;;;;0.30;0.30;;;1.00;99.90;;;;;;5025932;28;20565;-87
2024/01/07 07:41:00;;;;;;;0.30;0.30;;;1.00;99.90;;;;;;5041468;28;20272;-89
2024/01/07 07:43:26;;;;;;;0.43;0.43;;;1.00;99.90;;;;;;5026060;28;20183;-91
2024/01/07 07:45:52;;;;;;;0.80;0.80;;;1.00;99.90;;;;;;5026736;28;20190;-88
2024/01/07 07:48:22;;;;;;;0.30;0.30;;;1.00;99.90;;;;;;5015698;28;20236;-90
2024/01/07 07:50:49;;;;;;;0.90;0.90;;;1.00;99.90;;;;;;5041321;28;20221;-90
2024/01/07 07:53:15;;;;;;;0.30;0.30;;;0.90;99.90;;;;;;5025481;28;20325;-91
2024/01/07 07:55:41;;;;;;;0.40;0.40;;;0.90;99.90;;;;;;4998223;28;20734;-90
2024/01/07 07:58:07;;;;;;;0.30;0.30;;;0.80;99.90;;;;;;5033571;28;20190;-90
2024/01/07 08:00:32;;;;;;;0.50;0.50;;;0.80;99.90;;;;;;5014098;28;20226;-90
2024/01/07 08:02:58;;;;;;;0.30;0.30;;;0.70;99.90;;;;;;5025420;28;20573;-90
2024/01/07 08:05:24;;;;;;;1.03;1.03;;;0.70;99.90;;;;;;5023911;28;20218;-91
2024/01/07 08:07:50;;;;;;;0.40;0.40;;;0.80;99.90;;;;;;5024564;28;20678;-91
2024/01/07 08:10:16;;;;;;;0.30;0.30;;;0.80;99.90;;;;;;5014582;28;20199;-92
2024/01/07 08:12:42;;;;;;;0.30;0.30;;;0.80;99.90;;;;;;5039490;28;20190;-89
2024/01/07 08:15:08;;;;;;;0.40;0.40;;;0.80;99.90;;;;;;5040268;28;20216;-89
2024/01/07 08:17:34;;;;;;;1.20;1.07;;;0.80;99.90;;;;;;5017122;28;20223;-90
2024/01/07 08:20:01;;;;;;;1.20;0.70;;;0.80;99.90;;;;;;5014424;28;20698;-88
2024/01/07 08:22:26;;;;;;;0.30;0.30;;;0.90;99.90;;;;;;5004744;28;20214;-89
2024/01/07 08:24:53;;;;;;;0.30;0.30;;;0.90;99.90;;;;;;5026004;28;20284;-91
2024/01/07 08:27:20;;;;;;;0.40;0.40;;;1.00;99.90;;;;;;5040563;28;20696;-90
2024/01/07 08:29:46;;;;;;;0.40;0.40;;;1.00;99.90;;;;;;5032853;28;20282;-90
2024/01/07 08:32:12;;;;;;;0.30;0.30;;;1.00;99.90;;;;;;5029912;28;20210;-92
2024/01/07 08:34:39;;;;;;;0.20;0.20;;;1.10;99.90;;;;;;5007159;28;20243;-93
2024/01/07 08:37:05;;;;;;;0.30;0.30;;;1.10;99.90;;;;;;5031602;28;20222;-91
2024/01/07 08:39:31;;;;;;;0.43;0.43;;;1.10;99.90;;;;;;5033903;28;20221;-90
2024/01/07 08:41:57;;;;;;;0.50;0.50;;;1.10;99.90;;;;;;5024854;28;20310;-93
2024/01/07 08:44:22;;;;;;;0.30;0.30;;;1.20;99.90;;;;;;5014738;28;20273;-89
2024/01/07 08:46:48;;;;;;;1.17;1.17;;;1.20;99.90;;;;;;5017995;28;20971;-93
2024/01/07 08:49:14;;;;;;;0.43;0.40;;;1.20;99.90;;;;;;5017719;28;20288;-90
2024/01/07 08:51:40;;;;;;;0.60;0.60;;;1.30;99.90;;;;;;5039841;28;20246;-92
2024/01/07 08:54:06;;;;;;;0.40;0.40;;;1.30;99.90;;;;;;5014892;28;20237;-90
2024/01/07 08:56:31;;;;;;;0.40;0.40;;;1.30;99.90;;;;;;5023872;28;21034;-90
2024/01/07 08:58:58;;;;;;;0.30;0.30;;;1.30;99.90;;;;;;5024407;28;20655;-90
2024/01/07 09:01:24;;;;;;;1.70;1.60;;;1.30;99.90;;;;;;5015479;28;20226;-90
2024/01/07 09:03:50;;;;;;;0.43;0.43;;;1.30;99.90;;;;;;5015506;28;20214;-89
2024/01/07 09:06:16;;;;;;;0.40;0.40;;;1.30;99.90;;;;;;5039350;28;21016;-90
2024/01/07 09:08:42;;;;;;;0.97;0.97;;;1.40;99.90;;;;;;5039003;28;20371;-89
2024/01/07 09:11:10;;;;;;;0.43;0.43;;;1.30;99.90;;;;;;5039145;28;20546;-91
2024/01/07 09:13:37;;;;;;;0.30;0.30;;;1.30;99.90;;;;;;5012809;28;20221;-93
2024/01/07 09:16:03;;;;;;;0.47;0.37;;;1.30;99.90;;;;;;5013203;28;20222;-88
2024/01/07 09:18:29;;;;;;;1.17;0.87;;;1.30;99.90;;;;;;5023561;28;20222;-90
2024/01/07 09:20:54;;;;;;;0.70;0.70;;;1.40;99.90;;;;;;5039804;28;20288;-91
2024/01/07 09:23:22;;;;;;;0.30;0.30;;;1.30;99.90;;;;;;4998112;28;21028;-89
2024/01/07 09:25:47;;;;;;;0.23;0.23;;;1.40;99.90;;;;;;5029030;28;20628;-88
2024/01/07 09:28:13;;;;;;;1.23;0.47;;;1.40;99.90;;;;;;5039121;28;20341;-89
2024/01/07 09:30:39;;;;;;;0.30;0.30;;;1.40;99.90;;;;;;5028836;28;20575;-89
2024/01/07 09:33:05;;;;;;;0.23;0.23;;;1.40;99.90;;;;;;5022350;28;20627;-90
2024/01/07 09:35:31;;;;;;;0.30;0.30;;;1.40;99.90;;;;;;5038421;28;20179;-89
2024/01/07 09:37:56;;;;;;;0.30;0.30;;;1.40;99.90;;;;;;5039040;28;20190;-89
2024/01/07 09:40:22;;;;;;;0.30;0.30;;;1.40;99.90;;;;;;4999621;28;20356;-89
2024/01/07 09:42:49;;;;;;;0.30;0.30;;;1.30;99.90;;;;;;5029101;28;20207;-89
2024/01/07 09:45:14;;;;;;;0.20;0.20;;;1.30;99.90;;;;;;5039545;28;20335;-90
2024/01/07 09:47:43;;;;;;;0.40;0.40;;;1.30;99.90;;;;;;5038621;28;21551;-89
2024/01/07 09:50:10;;;;;;;0.93;0.93;;;1.30;99.90;;;;;;5024235;28;20568;-90
2024/01/07 09:52:43;;;;;;;0.30;0.30;;;1.30;99.90;;;;;;5039306;28;20238;-90
2024/01/07 09:55:12;;;;;;;0.30;0.30;;;1.30;99.90;;;;;;5023666;28;20236;-88
2024/01/07 09:57:44;;;;;;;1.03;0.83;;;1.30;99.90;;;;;;5021602;28;20218;-89
2024/01/07 10:00:11;;;;;;;0.50;0.50;;;1.40;99.90;;;;;;5039228;28;20214;-89
2024/01/07 10:02:37;;;;;;;0.30;0.30;;;1.40;99.90;;;;;;5013985;28;20218;-90
2024/01/07 10:05:03;;;;;;;0.80;0.80;;;1.40;99.90;;;;;;5023264;28;20553;-90
2024/01/07 10:07:32;;;;;;;1.30;0.70;;;1.50;99.90;;;;;;5011878;28;20588;-89
2024/01/07 10:10:09;;;;;;;0.87;0.87;;;1.40;99.90;;;;;;5030165;28;20238;-89
2024/01/07 10:12:35;;;;;;;0.30;0.30;;;1.50;99.90;;;;;;5026971;28;20218;-88
2024/01/07 10:15:01;;;;;;;0.30;0.30;;;1.50;99.90;;;;;;5038146;28;20230;-93
2024/01/07 10:17:27;;;;;;;0.37;0.37;;;1.60;99.90;;;;;;5038809;28;20202;-93
2024/01/07 10:19:53;;;;;;;0.30;0.30;;;1.60;99.90;;;;;;5014921;28;20195;-86
2024/01/07 10:22:19;;;;;;;0.77;0.77;;;1.60;99.90;;;;;;5006850;28;20325;-87
2024/01/07 10:24:45;;;;;;;0.53;0.47;;;1.60;99.90;;;;;;5029097;28;20236;-90
2024/01/07 10:27:13;;;;;;;0.30;0.30;;;1.60;99.90;;;;;;5039517;28;20218;-90
2024/01/07 10:29:39;;;;;;;0.40;0.40;;;1.60;99.90;;;;;;5026738;28;20241;-89
2024/01/07 10:32:05;;;;;;;0.40;0.40;;;1.60;99.90;;;;;;5044189;28;20179;-90
2024/01/07 10:34:33;;;;;;;0.30;0.30;;;1.60;99.90;;;;;;5025070;28;20210;-89
2024/01/07 10:37:01;;;;;;;0.60;0.60;;;1.70;99.90;;;;;;5024751;28;20761;-89
2024/01/07 10:39:27;;;;;;;0.30;0.30;;;1.80;99.90;;;;;;5041851;28;20222;-90
2024/01/07 10:41:57;;;;;;;0.67;0.53;;;1.70;99.90;;;;;;5042132;28;20218;-91
2024/01/07 10:44:41;;;;;;;0.37;0.37;;;1.90;99.90;;;;;;5030691;28;20185;-92
2024/01/07 10:47:09;;;;;;;0.30;0.30;;;2.10;99.90;;;;;;5014699;28;20178;-90
2024/01/07 10:49:36;;;;;;;0.90;0.70;;;2.10;99.90;;;;;;5038746;28;20230;-89
2024/01/07 10:52:07;;;;;;;2.53;1.03;;;2.20;99.90;;;;;;5028370;28;20234;-90
2024/01/07 10:54:35;;;;;;;0.30;0.30;;;2.00;99.90;;;;;;5037663;28;20226;-93
2024/01/07 10:57:21;;;;;;;0.43;0.43;;;1.90;99.90;;;;;;5023100;28;20911;-92
2024/01/07 10:59:50;;;;;;;0.60;0.60;;;2.00;99.90;;;;;;5039598;28;20241;-89
2024/01/07 11:02:16;;;;;;;0.70;0.70;;;2.00;99.90;;;;;;5023229;28;20286;-90
2024/01/07 11:05:05;;;;;;;1.17;1.07;;;2.00;99.90;;;;;;5043076;28;20201;-91
2024/01/07 11:07:41;;;;;;;0.77;0.70;;;2.10;99.90;;;;;;5027369;28;20221;-92
2024/01/07 11:10:13;;;;;;;0.60;0.60;;;2.10;99.90;;;;;;5015906;28;20745;-89
2024/01/07 11:12:38;;;;;;;0.30;0.30;;;2.20;99.90;;;;;;5042153;28;20218;-91
2024/01/07 11:15:04;;;;;;;0.37;0.37;;;2.20;99.90;;;;;;5027190;28;20218;-89
2024/01/07 11:17:39;;;;;;;1.53;1.43;;;2.20;99.90;;;;;;5004554;28;20214;-91
2024/01/07 11:20:26;;;;;;;1.33;0.80;;;2.30;99.90;;;;;;5024400;28;20220;-89
2024/01/07 11:22:52;;;;;;;0.73;0.73;;;2.30;99.90;;;;;;5035568;28;20250;-92
2024/01/07 11:25:37;;;;;;;0.30;0.30;;;2.20;99.90;;;;;;5021913;28;20761;-92
2024/01/07 11:28:02;;;;;;;0.30;0.30;;;2.20;99.90;;;;;;5028930;28;20245;-91
2024/01/07 11:30:29;;;;;;;0.47;0.47;;;2.20;99.90;;;;;;5029177;28;20598;-91
2024/01/07 11:33:01;;;;;;;0.67;0.67;;;2.20;99.90;;;;;;5038692;28;20700;-90
2024/01/07 11:35:59;;;;;;;1.80;1.70;;;2.10;99.90;;;;;;5021264;28;20182;-90
2024/01/07 11:38:25;;;;;;;0.53;0.53;;;2.30;99.90;;;;;;5040249;28;20191;-89
2024/01/07 11:40:52;;;;;;;0.90;0.40;;;2.30;99.90;;;;;;5041860;28;20198;-89
2024/01/07 11:43:18;;;;;;;0.40;0.40;;;2.30;99.90;;;;;;5023944;28;20249;-90
2024/01/07 11:45:44;;;;;;;0.30;0.30;;;2.30;99.90;;;;;;5012311;28;20305;-88
2024/01/07 11:48:10;;;;;;;0.27;0.27;;;2.30;99.90;;;;;;5007821;28;20230;-89
2024/01/07 11:50:36;;;;;;;0.60;0.60;;;2.30;99.90;;;;;;5013850;28;20226;-93
2024/01/07 11:53:02;;;;;;;8.33;1.40;;;2.40;99.90;;;;;;5040244;28;20222;-89
2024/01/07 11:55:32;;;;;;;0.30;0.30;;;2.40;99.90;;;;;;5001525;28;20658;-88
2024/01/07 11:58:04;;;;;;;0.30;0.30;;;2.50;99.90;;;;;;5040561;28;20214;-92
2024/01/07 12:00:34;;;;;;;0.27;0.27;;;2.50;99.90;;;;;;5041703;28;20223;-93
2024/01/07 12:03:01;;;;;;;0.83;0.83;;;2.50;99.90;;;;;;5024313;28;20225;-93
2024/01/07 12:05:27;;;;;;;0.30;0.30;;;2.50;99.90;;;;;;5017009;28;20213;-95
2024/01/07 12:07:53;;;;;;;0.23;0.23;;;2.60;99.90;;;;;;5033205;28;20279;-92
2024/01/07 12:10:19;;;;;;;13.17;3.53;;;2.60;99.90;;;;;;5041055;28;21680;-92
2024/01/07 12:12:45;;;;;;;0.50;0.50;;;2.60;99.90;;;;;;5023920;28;20222;-91
2024/01/07 12:15:12;;;;;;;0.77;0.77;;;2.60;99.90;;;;;;5025357;28;20250;-92
2024/01/07 12:17:39;;;;;;;0.40;0.40;;;2.50;99.90;;;;;;5040918;28;20253;-92
2024/01/07 12:20:07;;;;;;;0.40;0.40;;;2.50;99.90;;;;;;5024318;28;20228;-93
2024/01/07 12:22:33;;;;;;;0.80;0.80;;;2.40;99.90;;;;;;5042497;28;20254;-92
2024/01/07 12:25:23;;;;;;;0.40;0.40;;;2.30;99.90;;;;;;5038872;28;20329;-91
2024/01/07 12:27:52;;;;;;;0.43;0.40;;;2.40;99.90;;;;;;5024811;28;20214;-91
2024/01/07 12:30:19;;;;;;;0.60;0.60;;;2.40;99.90;;;;;;5031581;28;20288;-92
2024/01/07 12:32:45;;;;;;;0.30;0.30;;;2.40;99.90;;;;;;5039983;28;20276;-91
2024/01/07 12:35:11;;;;;;;0.30;0.30;;;2.40;99.90;;;;;;5032181;28;20677;-90
2024/01/07 12:37:38;;;;;;;1.33;1.33;;;2.40;99.90;;;;;;5024665;28;20222;-91
2024/01/07 12:40:09;;;;;;;0.40;0.40;;;2.30;99.90;;;;;;5015261;28;20284;-91
2024/01/07 12:42:34;;;;;;;0.40;0.40;;;2.30;99.90;;;;;;5007951;28;20356;-91
2024/01/07 12:45:00;;;;;;;0.87;0.87;;;2.40;99.90;;;;;;5015475;28;20304;-94
2024/01/07 12:47:26;;;;;;;1.63;1.53;;;2.40;99.90;;;;;;5015193;28;20190;-91
2024/01/07 12:49:52;;;;;;;1.03;1.03;;;2.40;99.90;;;;;;5023048;28;20246;-95
2024/01/07 12:52:18;;;;;;;0.27;0.27;;;2.40;99.90;;;;;;5023626;28;20324;-91
2024/01/07 12:54:44;;;;;;;0.60;0.60;;;2.40;99.90;;;;;;5007204;28;20225;-92